Terminal Aerodrome Forecast
Issued by NWS Billings, MT

Home | Current Version | Previous Version | Graphics & Text | Print | Product List | Glossary On
Versions: 1 2 3 4 5 6 7 8 9 10 11 12 13 14 15 16 17 18 19
000
FTUS45 KBYZ 271137
TAFMLS
TAF
KMLS 271137Z 2712/2812 07011KT P6SM VCTS SCT080CB BKN120
      TEMPO 2712/2714 VRB10G18KT -SHRA BKN060
     FM280300 04010KT P6SM VCSH BKN090=

USA.gov is the U.S. government's official web portal to all federal, state and local government web resources and services.